createdAt,value
2023-02-26T00:00:24.641Z,97.70
2023-02-26T00:03:10.690Z,97.70
2023-02-26T00:06:01.305Z,97.80
2023-02-26T00:08:47.885Z,97.70
2023-02-26T00:11:34.021Z,97.60
2023-02-26T00:14:20.545Z,97.70
2023-02-26T00:17:37.408Z,97.60
2023-02-26T00:20:23.752Z,97.70
2023-02-26T00:23:17.644Z,97.70
2023-02-26T00:26:03.554Z,97.60
2023-02-26T00:28:50.150Z,97.60
2023-02-26T00:31:36.128Z,97.60
2023-02-26T00:34:22.720Z,97.60
2023-02-26T00:37:20.686Z,97.40
2023-02-26T00:40:28.379Z,97.60
2023-02-26T00:43:24.206Z,97.30
2023-02-26T00:46:36.929Z,97.30
2023-02-26T00:49:44.553Z,97.10
2023-02-26T00:52:53.115Z,97.20
2023-02-26T00:55:39.624Z,97.20
2023-02-26T00:58:25.745Z,97.10
2023-02-26T01:01:11.880Z,97.30
2023-02-26T01:03:58.330Z,97.20
2023-02-26T01:06:47.782Z,97.00
2023-02-26T01:09:38.120Z,97.20
2023-02-26T01:12:24.643Z,97.20
2023-02-26T01:15:11.419Z,97.20
2023-02-26T01:18:09.915Z,96.90
2023-02-26T01:21:04.101Z,96.80
2023-02-26T01:23:52.118Z,96.90
2023-02-26T01:26:38.190Z,96.90
2023-02-26T01:29:25.640Z,96.70
2023-02-26T01:32:18.850Z,97.00
2023-02-26T01:35:32.623Z,96.90
2023-02-26T01:38:39.180Z,96.90
2023-02-26T01:41:46.637Z,96.80
2023-02-26T01:44:36.459Z,96.70
2023-02-26T01:47:30.838Z,96.60
2023-02-26T01:50:21.852Z,96.80
2023-02-26T01:53:21.399Z,96.70
2023-02-26T01:56:17.332Z,96.70
2023-02-26T01:59:06.023Z,96.30
2023-02-26T02:01:54.219Z,95.90
2023-02-26T02:04:42.050Z,95.60
2023-02-26T02:07:29.669Z,95.30
2023-02-26T02:10:15.883Z,95.10
2023-02-26T02:13:14.272Z,95.40
2023-02-26T02:16:00.155Z,95.50
2023-02-26T02:18:54.141Z,95.40
2023-02-26T02:22:10.792Z,95.70
2023-02-26T02:25:19.066Z,95.80
2023-02-26T02:28:36.621Z,95.80
2023-02-26T02:31:34.785Z,96.30
2023-02-26T02:34:26.134Z,96.30
2023-02-26T02:37:35.457Z,96.20
2023-02-26T02:40:34.978Z,96.20
2023-02-26T02:43:27.934Z,96.30
2023-02-26T02:46:20.131Z,96.20
2023-02-26T02:49:14.502Z,95.90
2023-02-26T02:52:08.147Z,95.70
2023-02-26T02:55:01.911Z,95.30
2023-02-26T02:58:00.876Z,95.20
2023-02-26T03:00:52.724Z,95.30
2023-02-26T03:04:02.463Z,95.30
2023-02-26T03:06:50.510Z,95.20
2023-02-26T03:09:38.375Z,94.90
2023-02-26T03:12:27.623Z,94.30
2023-02-26T03:15:14.921Z,94.00
2023-02-26T03:18:16.211Z,94.30
2023-02-26T03:21:11.060Z,94.10
2023-02-26T03:24:05.837Z,94.00
2023-02-26T03:27:22.012Z,94.20
2023-02-26T03:30:19.183Z,94.30
2023-02-26T03:33:31.758Z,93.90
2023-02-26T03:36:47.124Z,94.00
2023-02-26T03:39:51.375Z,94.10
2023-02-26T03:42:54.029Z,94.40
2023-02-26T03:45:43.002Z,94.40
2023-02-26T03:48:31.230Z,94.40
2023-02-26T03:51:19.009Z,94.20
2023-02-26T03:54:30.797Z,94.30
2023-02-26T03:57:36.673Z,94.20
2023-02-26T04:00:50.684Z,94.30
2023-02-26T04:03:59.965Z,94.40
2023-02-26T04:06:47.479Z,94.60
2023-02-26T04:09:33.404Z,94.40
2023-02-26T04:12:24.480Z,94.60
2023-02-26T04:15:13.404Z,94.90
2023-02-26T04:18:00.700Z,94.90
2023-02-26T04:20:47.673Z,94.80
2023-02-26T04:23:33.816Z,94.70
2023-02-26T04:26:20.617Z,94.70
2023-02-26T04:29:06.585Z,94.80
2023-02-26T04:31:53.668Z,94.40
2023-02-26T04:34:40.148Z,94.60
2023-02-26T04:37:26.936Z,94.60
2023-02-26T04:40:13.376Z,94.40
2023-02-26T04:42:59.641Z,94.30
2023-02-26T04:45:50.160Z,94.50
2023-02-26T04:48:36.110Z,94.20
2023-02-26T04:51:22.287Z,94.10
2023-02-26T04:54:10.302Z,94.20
2023-02-26T04:56:56.192Z,94.00
2023-02-26T04:59:42.241Z,94.00
2023-02-26T05:02:28.697Z,94.10
2023-02-26T05:05:14.598Z,94.00
2023-02-26T05:08:02.096Z,93.90
2023-02-26T05:10:49.240Z,94.20
2023-02-26T05:13:36.041Z,94.00
2023-02-26T05:16:22.503Z,93.80
2023-02-26T05:19:08.691Z,94.00
2023-02-26T05:21:54.600Z,94.20
2023-02-26T05:24:40.757Z,94.30
2023-02-26T05:27:27.180Z,94.30
2023-02-26T05:30:15.351Z,94.20
2023-02-26T05:33:02.884Z,94.20
2023-02-26T05:35:49.106Z,94.20
2023-02-26T05:38:35.582Z,94.20
2023-02-26T05:41:21.720Z,94.20
2023-02-26T05:44:09.086Z,94.30
2023-02-26T05:46:55.644Z,94.30
2023-02-26T05:49:41.840Z,94.50
2023-02-26T05:52:27.821Z,94.60
2023-02-26T05:55:13.887Z,94.60
2023-02-26T05:57:59.896Z,94.60
2023-02-26T06:00:46.207Z,94.80
2023-02-26T06:03:32.328Z,94.80
2023-02-26T06:06:18.564Z,95.00
2023-02-26T06:09:05.044Z,95.10
2023-02-26T06:11:51.271Z,95.00
2023-02-26T06:14:37.366Z,94.80
2023-02-26T06:17:23.267Z,94.90
2023-02-26T06:20:10.341Z,94.90
2023-02-26T06:22:56.470Z,94.90
2023-02-26T06:25:42.683Z,95.00
2023-02-26T06:28:28.643Z,95.20
2023-02-26T06:31:14.630Z,95.30
2023-02-26T06:34:00.388Z,95.40
2023-02-26T06:36:46.547Z,95.40
2023-02-26T06:39:32.681Z,95.50
2023-02-26T06:42:20.157Z,95.30
2023-02-26T06:45:07.318Z,95.10
2023-02-26T06:47:54.484Z,95.40
2023-02-26T06:50:40.397Z,94.90
2023-02-26T06:53:26.492Z,94.70
2023-02-26T06:56:12.421Z,94.20
2023-02-26T06:58:58.855Z,93.80
2023-02-26T07:01:45.053Z,94.00
2023-02-26T07:04:30.960Z,94.20
2023-02-26T07:07:17.051Z,94.30
2023-02-26T07:10:03.568Z,94.20
2023-02-26T07:12:49.626Z,94.10
2023-02-26T07:15:35.964Z,94.50
2023-02-26T07:18:21.984Z,94.20
2023-02-26T07:21:07.854Z,93.90
2023-02-26T07:23:53.765Z,93.30
2023-02-26T07:26:40.188Z,93.70
2023-02-26T07:29:26.122Z,94.00
2023-02-26T07:32:12.197Z,93.70
2023-02-26T07:34:58.343Z,93.60
2023-02-26T07:37:44.538Z,93.90
2023-02-26T07:40:30.765Z,93.70
2023-02-26T07:43:17.193Z,93.10
2023-02-26T07:46:04.498Z,92.40
2023-02-26T07:48:50.422Z,91.80
2023-02-26T07:51:37.173Z,92.40
2023-02-26T07:54:23.200Z,91.60
2023-02-26T07:57:09.866Z,91.10
2023-02-26T07:59:55.916Z,90.80
2023-02-26T08:02:42.179Z,91.00
2023-02-26T08:05:30.149Z,91.50
2023-02-26T08:08:16.423Z,90.70
2023-02-26T08:11:03.499Z,90.20
2023-02-26T08:13:49.287Z,90.30
2023-02-26T08:16:35.127Z,89.30
2023-02-26T08:19:21.201Z,90.10
2023-02-26T08:22:07.420Z,90.50
2023-02-26T08:24:53.754Z,90.60
2023-02-26T08:27:40.031Z,89.80
2023-02-26T08:30:26.134Z,90.00
2023-02-26T08:33:12.444Z,90.10
2023-02-26T08:35:59.086Z,90.50
2023-02-26T08:38:45.254Z,90.80
2023-02-26T08:41:32.617Z,91.10
2023-02-26T08:44:18.764Z,91.00
2023-02-26T08:47:04.603Z,90.70
2023-02-26T08:49:50.730Z,91.10
2023-02-26T08:52:36.585Z,91.10
2023-02-26T08:55:23.228Z,91.60
2023-02-26T08:58:09.485Z,91.00
2023-02-26T09:00:55.337Z,91.40
2023-02-26T09:03:41.329Z,92.20
2023-02-26T09:06:27.810Z,91.30
2023-02-26T09:09:14.368Z,92.00
2023-02-26T09:12:00.825Z,91.70
2023-02-26T09:14:46.908Z,92.50
2023-02-26T09:17:32.865Z,92.40
2023-02-26T09:20:19.114Z,91.60
2023-02-26T09:23:05.358Z,92.00
2023-02-26T09:25:56.069Z,92.70
2023-02-26T09:28:42.476Z,91.80
2023-02-26T09:31:28.845Z,91.80
2023-02-26T09:34:15.504Z,92.10
2023-02-26T09:37:03.439Z,92.10
2023-02-26T09:39:49.578Z,92.30
2023-02-26T09:42:49.235Z,91.90
2023-02-26T09:45:38.344Z,92.20
2023-02-26T09:48:28.284Z,92.40
2023-02-26T09:51:21.096Z,92.20
2023-02-26T09:54:17.007Z,92.30
2023-02-26T09:57:06.019Z,92.20
2023-02-26T09:59:52.285Z,92.30
2023-02-26T10:02:49.455Z,92.60
2023-02-26T10:05:55.687Z,92.00
2023-02-26T10:09:15.553Z,92.40
2023-02-26T10:12:16.199Z,91.40
2023-02-26T10:15:10.624Z,90.40
2023-02-26T10:18:08.808Z,90.80
2023-02-26T10:21:09.515Z,90.40
2023-02-26T10:23:58.905Z,89.80
2023-02-26T10:27:09.622Z,90.10
2023-02-26T10:30:09.365Z,90.30
2023-02-26T10:33:13.881Z,88.10
2023-02-26T10:36:12.699Z,89.50
2023-02-26T10:39:03.824Z,91.00
2023-02-26T10:41:51.392Z,90.20
2023-02-26T10:44:57.152Z,90.00
2023-02-26T10:47:57.626Z,90.90
2023-02-26T10:50:51.655Z,91.20
2023-02-26T10:53:40.445Z,90.90
2023-02-26T10:56:31.197Z,91.30
2023-02-26T10:59:17.564Z,91.80
2023-02-26T11:02:03.475Z,92.40
2023-02-26T11:04:56.498Z,91.40
2023-02-26T11:08:02.336Z,92.60
2023-02-26T11:10:54.499Z,92.10
2023-02-26T11:13:41.612Z,91.70
2023-02-26T11:16:28.884Z,91.10
2023-02-26T11:19:16.694Z,91.60
2023-02-26T11:22:04.625Z,90.80
2023-02-26T11:24:52.319Z,91.30
2023-02-26T11:27:39.278Z,91.20
2023-02-26T11:30:29.676Z,91.20
2023-02-26T11:33:28.965Z,91.70
2023-02-26T11:36:20.752Z,91.80
2023-02-26T11:39:28.391Z,92.50
2023-02-26T11:42:14.888Z,92.70
2023-02-26T11:45:00.881Z,92.50
2023-02-26T11:47:49.228Z,92.60
2023-02-26T11:50:43.507Z,90.90
2023-02-26T11:53:34.550Z,88.60
2023-02-26T11:56:43.585Z,89.40
2023-02-26T11:59:32.927Z,88.30
2023-02-26T12:02:21.839Z,88.90
2023-02-26T12:05:10.668Z,90.20
2023-02-26T12:07:57.060Z,87.80
2023-02-26T12:10:51.424Z,84.10
2023-02-26T12:13:58.813Z,78.90
2023-02-26T12:17:22.746Z,71.30
2023-02-26T12:20:38.435Z,65.80
2023-02-26T12:23:26.067Z,62.60
2023-02-26T12:26:29.829Z,62.30
2023-02-26T12:29:34.826Z,66.00
2023-02-26T12:32:59.372Z,67.90
2023-02-26T12:36:21.676Z,67.30
2023-02-26T12:39:23.408Z,68.80
2023-02-26T12:42:47.281Z,69.30
2023-02-26T12:46:01.970Z,70.00
2023-02-26T12:49:11.145Z,66.50
2023-02-26T12:52:20.125Z,63.90
2023-02-26T12:55:17.203Z,61.20
2023-02-26T12:58:34.058Z,58.40
2023-02-26T13:01:26.519Z,56.60
2023-02-26T13:04:57.749Z,60.40
2023-02-26T13:07:52.686Z,65.50
2023-02-26T13:10:57.071Z,70.50
2023-02-26T13:14:19.639Z,72.60
2023-02-26T13:17:20.155Z,76.10
2023-02-26T13:20:27.607Z,76.30
2023-02-26T13:23:21.050Z,77.10
2023-02-26T13:26:13.029Z,78.00
2023-02-26T13:29:10.016Z,75.60
2023-02-26T13:31:59.277Z,73.30
2023-02-26T13:34:52.879Z,72.70
2023-02-26T13:37:44.340Z,73.90
2023-02-26T13:40:54.079Z,74.00
2023-02-26T13:44:17.272Z,73.10
2023-02-26T13:47:42.796Z,76.10
2023-02-26T13:50:43.971Z,76.50
2023-02-26T13:53:33.708Z,72.30
2023-02-26T13:56:31.942Z,75.20
2023-02-26T13:59:37.857Z,74.80
2023-02-26T14:02:47.894Z,74.30
2023-02-26T14:05:35.791Z,72.10
2023-02-26T14:08:44.076Z,72.30
2023-02-26T14:11:37.783Z,72.80
2023-02-26T14:14:29.766Z,72.10
2023-02-26T14:17:15.840Z,71.10
2023-02-26T14:20:08.920Z,72.80
2023-02-26T14:23:10.935Z,71.00
2023-02-26T14:26:05.133Z,67.00
2023-02-26T14:29:06.819Z,67.80
2023-02-26T14:32:14.645Z,65.60
2023-02-26T14:35:06.311Z,62.90
2023-02-26T14:38:06.157Z,63.80
2023-02-26T14:41:03.171Z,62.80
2023-02-26T14:44:03.789Z,63.10
2023-02-26T14:46:51.978Z,65.30
2023-02-26T14:49:41.896Z,64.60
2023-02-26T14:52:49.250Z,66.60
2023-02-26T14:55:46.144Z,66.70
2023-02-26T14:59:10.194Z,66.70
2023-02-26T15:02:05.880Z,66.00
2023-02-26T15:05:12.423Z,68.10
2023-02-26T15:08:20.058Z,66.70
2023-02-26T15:11:33.515Z,67.50
2023-02-26T15:14:46.757Z,67.40
2023-02-26T15:18:14.451Z,70.00
2023-02-26T15:21:03.779Z,68.70
2023-02-26T15:23:55.431Z,68.60
2023-02-26T15:26:54.032Z,69.20
2023-02-26T15:29:41.419Z,71.20
2023-02-26T15:32:30.755Z,71.10
2023-02-26T15:35:20.690Z,70.70
2023-02-26T15:38:06.835Z,71.40
2023-02-26T15:40:58.238Z,71.80
2023-02-26T15:43:50.139Z,71.00
2023-02-26T15:46:44.206Z,71.00
2023-02-26T15:49:40.099Z,71.60
2023-02-26T15:52:28.050Z,72.60
2023-02-26T15:55:18.009Z,71.90
2023-02-26T15:58:06.565Z,73.50
2023-02-26T16:00:56.162Z,72.80
2023-02-26T16:03:42.807Z,71.50
2023-02-26T16:06:37.610Z,70.80
2023-02-26T16:09:34.599Z,67.20
2023-02-26T16:12:43.738Z,66.70
2023-02-26T16:15:37.118Z,64.60
2023-02-26T16:18:26.206Z,64.20
2023-02-26T16:21:28.891Z,65.60
2023-02-26T16:24:19.250Z,67.20
2023-02-26T16:27:09.792Z,69.20
2023-02-26T16:29:59.397Z,72.00
2023-02-26T16:32:47.406Z,71.60
2023-02-26T16:35:39.155Z,72.50
2023-02-26T16:38:26.518Z,80.70
2023-02-26T16:41:14.288Z,83.40
2023-02-26T16:44:03.392Z,85.70
2023-02-26T16:46:52.808Z,86.70
2023-02-26T16:49:41.473Z,87.90
2023-02-26T16:52:28.257Z,88.10
2023-02-26T16:55:18.414Z,89.00
2023-02-26T16:58:07.849Z,89.80
2023-02-26T17:01:09.473Z,89.20
2023-02-26T17:04:02.228Z,89.10
2023-02-26T17:06:48.766Z,90.00
2023-02-26T17:09:40.792Z,90.10
2023-02-26T17:12:42.909Z,89.10
2023-02-26T17:15:35.694Z,90.30
2023-02-26T17:18:21.950Z,88.70
2023-02-26T17:21:10.048Z,87.10
2023-02-26T17:23:56.432Z,86.60
2023-02-26T17:26:43.109Z,85.60
2023-02-26T17:29:37.179Z,85.50
2023-02-26T17:32:27.117Z,84.20
2023-02-26T17:35:18.806Z,84.90
2023-02-26T17:38:04.925Z,84.20
2023-02-26T17:40:54.347Z,83.70
2023-02-26T17:43:40.278Z,83.90
2023-02-26T17:46:26.104Z,84.70
2023-02-26T17:49:12.712Z,85.10
2023-02-26T17:51:58.934Z,86.30
2023-02-26T17:54:44.963Z,86.90
2023-02-26T17:57:31.251Z,90.40
2023-02-26T18:00:18.270Z,91.10
2023-02-26T18:03:04.717Z,91.50
2023-02-26T18:05:53.512Z,91.50
2023-02-26T18:08:40.759Z,91.90
2023-02-26T18:11:27.781Z,92.10
2023-02-26T18:14:13.905Z,91.90
2023-02-26T18:17:00.005Z,91.40
2023-02-26T18:19:49.488Z,91.20
2023-02-26T18:22:35.943Z,90.90
2023-02-26T18:25:22.429Z,90.60
2023-02-26T18:28:16.094Z,90.70
2023-02-26T18:31:08.501Z,90.70
2023-02-26T18:33:55.193Z,90.30
2023-02-26T18:36:41.333Z,90.10
2023-02-26T18:39:31.912Z,89.80
2023-02-26T18:42:24.825Z,89.70
2023-02-26T18:45:11.712Z,88.80
2023-02-26T18:47:57.809Z,89.60
2023-02-26T18:50:44.895Z,89.70
2023-02-26T18:53:31.188Z,90.10
2023-02-26T18:56:17.556Z,90.40
2023-02-26T18:59:04.230Z,90.30
2023-02-26T19:01:50.837Z,90.40
2023-02-26T19:04:36.795Z,90.40
2023-02-26T19:07:22.642Z,90.50
2023-02-26T19:10:13.409Z,91.00
2023-02-26T19:12:59.365Z,91.10
2023-02-26T19:15:45.459Z,90.70
2023-02-26T19:18:31.503Z,90.90
2023-02-26T19:21:18.673Z,91.20
2023-02-26T19:24:05.173Z,90.80
2023-02-26T19:26:51.661Z,90.80
2023-02-26T19:29:39.585Z,91.00
2023-02-26T19:32:26.677Z,90.90
2023-02-26T19:35:13.000Z,91.00
2023-02-26T19:37:59.187Z,91.20
2023-02-26T19:40:45.107Z,91.00
2023-02-26T19:43:31.253Z,91.10
2023-02-26T19:46:17.622Z,91.00
2023-02-26T19:49:04.707Z,91.10
2023-02-26T19:51:51.571Z,91.30
2023-02-26T19:54:37.412Z,91.30
2023-02-26T19:57:23.886Z,91.40
2023-02-26T20:00:12.436Z,91.40
2023-02-26T20:02:58.493Z,91.40
2023-02-26T20:05:45.644Z,91.70
2023-02-26T20:08:32.209Z,91.70
2023-02-26T20:11:18.244Z,91.60
2023-02-26T20:14:04.170Z,91.70
2023-02-26T20:16:50.268Z,91.70
2023-02-26T20:19:36.375Z,91.90
2023-02-26T20:22:24.515Z,92.30
2023-02-26T20:25:10.526Z,92.20
2023-02-26T20:27:56.991Z,92.30
2023-02-26T20:30:43.255Z,92.10
2023-02-26T20:33:29.384Z,92.30
2023-02-26T20:36:15.748Z,91.90
2023-02-26T20:39:02.562Z,92.20
2023-02-26T20:41:48.662Z,92.00
2023-02-26T20:44:34.568Z,91.90
2023-02-26T20:47:20.431Z,91.70
2023-02-26T20:50:07.091Z,91.20
2023-02-26T20:52:53.079Z,91.00
2023-02-26T20:55:39.075Z,91.00
2023-02-26T20:58:25.819Z,91.20
2023-02-26T21:01:12.198Z,91.20
2023-02-26T21:03:58.375Z,91.00
2023-02-26T21:06:44.506Z,91.10
2023-02-26T21:09:30.389Z,90.90
2023-02-26T21:12:17.220Z,91.20
2023-02-26T21:15:04.369Z,91.10
2023-02-26T21:17:50.323Z,91.10
2023-02-26T21:20:36.877Z,91.30
2023-02-26T21:23:23.036Z,91.30
2023-02-26T21:26:09.316Z,91.30
2023-02-26T21:28:55.336Z,91.20
2023-02-26T21:31:41.363Z,91.60
2023-02-26T21:34:33.769Z,91.20
2023-02-26T21:37:20.366Z,91.30
2023-02-26T21:40:07.050Z,90.80
2023-02-26T21:42:53.231Z,91.10
2023-02-26T21:45:39.654Z,91.40
2023-02-26T21:48:25.845Z,91.00
2023-02-26T21:51:12.205Z,91.20
2023-02-26T21:53:58.458Z,91.30
2023-02-26T21:56:44.395Z,91.20
2023-02-26T21:59:30.244Z,91.40
2023-02-26T22:02:17.239Z,91.30
2023-02-26T22:05:03.550Z,91.00
2023-02-26T22:07:49.834Z,91.10
2023-02-26T22:10:35.736Z,90.90
2023-02-26T22:13:21.534Z,90.90
2023-02-26T22:16:07.747Z,90.60
2023-02-26T22:18:54.105Z,91.00
2023-02-26T22:21:40.040Z,91.30
2023-02-26T22:24:26.306Z,91.30
2023-02-26T22:27:12.389Z,91.50
2023-02-26T22:29:58.291Z,91.80
2023-02-26T22:32:44.876Z,92.10
2023-02-26T22:35:31.030Z,92.40
2023-02-26T22:38:17.520Z,92.10
2023-02-26T22:41:03.860Z,92.30
2023-02-26T22:43:53.820Z,91.60
2023-02-26T22:46:40.284Z,91.50
2023-02-26T22:49:26.281Z,91.20
2023-02-26T22:52:13.140Z,90.60
2023-02-26T22:54:59.253Z,90.40
2023-02-26T22:57:45.208Z,90.80
2023-02-26T23:00:31.118Z,90.30
2023-02-26T23:03:17.374Z,90.10
2023-02-26T23:06:04.000Z,90.40
2023-02-26T23:08:50.243Z,90.70
2023-02-26T23:11:36.228Z,90.20
2023-02-26T23:14:22.687Z,89.90
2023-02-26T23:17:11.308Z,90.20
2023-02-26T23:19:57.524Z,90.30
2023-02-26T23:22:43.862Z,90.00
2023-02-26T23:25:30.074Z,90.40
2023-02-26T23:28:16.297Z,90.40
2023-02-26T23:31:03.219Z,90.30
2023-02-26T23:33:49.344Z,90.40
2023-02-26T23:36:35.246Z,90.20
2023-02-26T23:39:21.415Z,90.40
2023-02-26T23:42:07.388Z,90.30
2023-02-26T23:44:53.609Z,90.60
2023-02-26T23:47:40.239Z,90.60
2023-02-26T23:50:26.351Z,90.50
2023-02-26T23:53:12.291Z,90.70
2023-02-26T23:55:58.955Z,90.90
2023-02-26T23:58:45.185Z,91.20
